Zeynalabdin Tagiyev — 9HLD8 — position and weather

sailwx.info

Track history (hours):
 
Tides and Currents Weather Stations Pressure Air Temp Water Temp Dewpoint Dewpoint Depression Visibility Wind Speed Wind Dir Waves Ship Positions

Zeynalabdin Tagiyev

Last reported at 2015-Jul-24 05:14 UTC. Time now 2015-Aug-02 18:20 UTC.
Position N 45°11' E 029°12'.
Warning: this ship's position is 9 days out of date.

Length 140 m; draft 3.7 m.

Type: Cargo ship. MMSI: 256107000.

Date/timePositionNaut miles runAvg speedWind from/ knotsBaromVisibWave heightAir tempDewpointWater temp
2015-Jul-24 05:14N 45°11' E 029°12'5 7.9
2015-Jul-24 04:33N 45°11' E 029°19'8 7.7
2015-Jul-24 03:33N 45°10' E 029°30'6 6.2
2015-Jul-24 02:33N 45°09' E 029°39'1 0.2
2015-Jul-23 23:33N 45°09' E 029°40'0 0.0
2015-Jul-23 22:33N 45°09' E 029°40'0 0.0
2015-Jul-23 20:33N 45°09' E 029°40'0 0.0
2015-Jul-23 19:29N 45°09' E 029°40'0 0.0
2015-Jul-23 18:25N 45°09' E 029°40'252 8.1
2015-Jul-22 11:10N 40°59' E 028°60'4 6.8
2015-Jul-22 10:31N 40°55' E 028°57'4 0.1
2015-Jul-21 09:30N 40°58' E 028°55'0 0.2
2015-Jul-21 08:27N 40°58' E 028°55'7 6.1
2015-Jul-21 07:20N 40°52' E 028°52'4210.0
2015-Jul-21 03:05N 40°45' E 027°57'  
Track history (hours):
 
Tides and Currents Weather Stations Pressure Air Temp Water Temp Dewpoint Dewpoint Depression Visibility Wind Speed Wind Dir Waves Ship Positions

Zeynalabdin Tagiyev

Last reported at 2015-Jul-24 05:14 UTC. Time now 2015-Aug-02 18:20 UTC.
Position N 45°11' E 029°12'.
Warning: this ship's position is 9 days out of date.

Length 140 m; draft 3.7 m.

Type: Cargo ship. MMSI: 256107000.

Date/timePositionNaut miles runAvg speedWind from/ knotsBaromVisibWave heightAir tempDewpointWater temp
2015-Jul-24 05:14N 45°11' E 029°12'5 7.9
2015-Jul-24 04:33N 45°11' E 029°19'8 7.7
2015-Jul-24 03:33N 45°10' E 029°30'6 6.2
2015-Jul-24 02:33N 45°09' E 029°39'1 0.2
2015-Jul-23 23:33N 45°09' E 029°40'0 0.0
2015-Jul-23 22:33N 45°09' E 029°40'0 0.0
2015-Jul-23 20:33N 45°09' E 029°40'0 0.0
2015-Jul-23 19:29N 45°09' E 029°40'0 0.0
2015-Jul-23 18:25N 45°09' E 029°40'252 8.1
2015-Jul-22 11:10N 40°59' E 028°60'4 6.8
2015-Jul-22 10:31N 40°55' E 028°57'4 0.1
2015-Jul-21 09:30N 40°58' E 028°55'0 0.2
2015-Jul-21 08:27N 40°58' E 028°55'7 6.1
2015-Jul-21 07:20N 40°52' E 028°52'4210.0
2015-Jul-21 03:05N 40°45' E 027°57'  

Dump ship's entire track history